createdAt,value
2022-12-15T00:00:37.023Z,99225.98
2022-12-15T00:03:26.272Z,99224.45
2022-12-15T00:06:14.851Z,99233.70
2022-12-15T00:09:03.079Z,99232.90
2022-12-15T00:11:51.396Z,99235.66
2022-12-15T00:14:39.552Z,99238.89
2022-12-15T00:17:28.022Z,99244.23
2022-12-15T00:20:16.669Z,99242.48
2022-12-15T00:23:05.343Z,99239.70
2022-12-15T00:25:53.500Z,99236.16
2022-12-15T00:28:41.681Z,99234.40
2022-12-15T00:31:30.136Z,99233.89
2022-12-15T00:34:18.782Z,99234.24
2022-12-15T00:37:07.008Z,99232.92
2022-12-15T00:39:37.796Z,99229.13
2022-12-15T00:42:08.791Z,99240.72
2022-12-15T00:44:39.542Z,99239.05
2022-12-15T00:47:10.316Z,99244.41
2022-12-15T00:49:58.500Z,99248.33
2022-12-15T00:52:46.951Z,99255.20
2022-12-15T00:55:35.237Z,99260.84
2022-12-15T00:58:23.865Z,99258.80
2022-12-15T01:01:11.947Z,99258.52
2022-12-15T01:04:00.499Z,99257.95
2022-12-15T01:06:49.303Z,99261.60
2022-12-15T01:09:37.536Z,99266.76
2022-12-15T01:12:25.978Z,99268.45
2022-12-15T01:15:14.288Z,99267.89
2022-12-15T01:18:02.875Z,99273.12
2022-12-15T01:20:34.616Z,99279.77
2022-12-15T01:23:06.190Z,99282.65
2022-12-15T01:25:39.209Z,99289.36
2022-12-15T01:28:10.073Z,99295.73
2022-12-15T01:30:41.910Z,99301.23
2022-12-15T01:33:13.253Z,99298.04
2022-12-15T01:35:43.992Z,99307.33
2022-12-15T01:38:14.819Z,99309.67
2022-12-15T01:40:54.623Z,99309.30
2022-12-15T01:43:27.939Z,99311.28
2022-12-15T01:46:01.997Z,99318.27
2022-12-15T01:48:39.906Z,99312.02
2022-12-15T01:51:16.810Z,99322.05
2022-12-15T01:53:54.365Z,99326.44
2022-12-15T01:56:27.113Z,99327.33
2022-12-15T01:59:03.201Z,99330.61
2022-12-15T02:01:34.103Z,99337.23
2022-12-15T02:04:06.073Z,99342.39
2022-12-15T02:06:37.441Z,99343.25
2022-12-15T02:09:08.809Z,99343.45
2022-12-15T02:12:00.326Z,99343.70
2022-12-15T02:14:46.725Z,99341.66
2022-12-15T02:17:30.029Z,99343.05
2022-12-15T02:20:50.016Z,99344.73
2022-12-15T02:23:54.541Z,99348.36
2022-12-15T02:26:59.907Z,99347.77
2022-12-15T02:29:53.294Z,99355.10
2022-12-15T02:32:27.374Z,99356.85
2022-12-15T02:35:03.822Z,99353.46
2022-12-15T02:37:37.341Z,99352.65
2022-12-15T02:40:11.464Z,99355.77
2022-12-15T02:42:47.970Z,99357.02
2022-12-15T02:45:21.806Z,99351.17
2022-12-15T02:48:00.627Z,99353.36
2022-12-15T02:50:46.275Z,99351.04
2022-12-15T02:53:31.657Z,99354.09
2022-12-15T02:56:06.555Z,99354.66
2022-12-15T02:58:45.655Z,99356.45
2022-12-15T03:01:24.328Z,99359.77
2022-12-15T03:03:56.669Z,99364.19
2022-12-15T03:06:29.787Z,99371.33
2022-12-15T03:09:00.455Z,99381.95
2022-12-15T03:11:31.822Z,99383.54
2022-12-15T03:14:02.523Z,99385.57
2022-12-15T03:16:33.268Z,99386.80
2022-12-15T03:19:04.126Z,99386.28
2022-12-15T03:21:34.789Z,99393.03
2022-12-15T03:24:05.717Z,99399.23
2022-12-15T03:26:36.332Z,99402.14
2022-12-15T03:29:07.340Z,99406.40
2022-12-15T03:31:38.289Z,99409.02
2022-12-15T03:34:09.042Z,99413.38
2022-12-15T03:36:39.678Z,99417.11
2022-12-15T03:39:10.505Z,99416.60
2022-12-15T03:41:41.635Z,99416.83
2022-12-15T03:44:12.413Z,99421.77
2022-12-15T03:46:43.175Z,99429.02
2022-12-15T03:49:14.051Z,99429.52
2022-12-15T03:51:45.065Z,99434.45
2022-12-15T03:54:16.340Z,99434.48
2022-12-15T03:56:46.966Z,99434.17
2022-12-15T03:59:17.592Z,99439.60
2022-12-15T04:01:50.293Z,99440.36
2022-12-15T04:04:21.086Z,99438.46
2022-12-15T04:06:51.737Z,99436.77
2022-12-15T04:09:22.380Z,99442.81
2022-12-15T04:11:53.089Z,99448.62
2022-12-15T04:14:23.746Z,99445.64
2022-12-15T04:16:54.557Z,99459.81
2022-12-15T04:19:43.111Z,99463.55
2022-12-15T04:22:17.791Z,99475.58
2022-12-15T04:25:06.778Z,99479.12
2022-12-15T04:28:01.247Z,99478.43
2022-12-15T04:30:50.810Z,99486.09
2022-12-15T04:33:39.899Z,99488.38
2022-12-15T04:36:31.695Z,99491.56
2022-12-15T04:39:18.935Z,99499.99
2022-12-15T04:42:07.463Z,99504.98
2022-12-15T04:44:56.913Z,99507.30
2022-12-15T04:47:45.268Z,99507.26
2022-12-15T04:50:33.938Z,99511.86
2022-12-15T04:53:30.580Z,99525.11
2022-12-15T04:56:19.305Z,99528.41
2022-12-15T04:59:07.913Z,99527.96
2022-12-15T05:01:56.190Z,99527.27
2022-12-15T05:04:44.685Z,99526.21
2022-12-15T05:07:33.267Z,99527.73
2022-12-15T05:10:22.739Z,99529.59
2022-12-15T05:13:10.898Z,99533.41
2022-12-15T05:15:59.213Z,99533.65
2022-12-15T05:18:47.396Z,99535.80
2022-12-15T05:21:35.702Z,99546.27
2022-12-15T05:24:24.919Z,99550.83
2022-12-15T05:27:13.026Z,99556.65
2022-12-15T05:30:01.364Z,99560.77
2022-12-15T05:32:34.435Z,99567.08
2022-12-15T05:35:05.755Z,99562.35
2022-12-15T05:37:36.395Z,99566.57
2022-12-15T05:40:09.307Z,99569.59
2022-12-15T05:42:40.053Z,99572.27
2022-12-15T05:45:12.249Z,99571.17
2022-12-15T05:47:42.872Z,99572.46
2022-12-15T05:50:13.595Z,99574.95
2022-12-15T05:52:49.195Z,99580.55
2022-12-15T05:55:20.625Z,99586.29
2022-12-15T05:57:55.014Z,99592.99
2022-12-15T06:00:26.053Z,99599.67
2022-12-15T06:02:57.047Z,99599.77
2022-12-15T06:05:27.971Z,99602.83
2022-12-15T06:08:00.720Z,99607.91
2022-12-15T06:10:31.369Z,99611.02
2022-12-15T06:13:02.109Z,99613.70
2022-12-15T06:15:32.852Z,99613.23
2022-12-15T06:18:03.547Z,99615.70
2022-12-15T06:20:34.186Z,99622.24
2022-12-15T06:23:05.029Z,99624.45
2022-12-15T06:25:35.772Z,99625.04
2022-12-15T06:28:06.726Z,99628.65
2022-12-15T06:30:37.843Z,99632.47
2022-12-15T06:33:08.700Z,99632.58
2022-12-15T06:35:40.000Z,99635.21
2022-12-15T06:38:10.773Z,99638.07
2022-12-15T06:40:41.722Z,99644.93
2022-12-15T06:43:12.410Z,99656.34
2022-12-15T06:45:49.816Z,99657.59
2022-12-15T06:48:21.407Z,99660.31
2022-12-15T06:50:52.795Z,99668.30
2022-12-15T06:53:25.141Z,99672.20
2022-12-15T06:56:00.154Z,99669.56
2022-12-15T06:58:30.979Z,99666.44
2022-12-15T07:01:06.011Z,99672.66
2022-12-15T07:03:39.293Z,99673.21
2022-12-15T07:06:13.212Z,99672.62
2022-12-15T07:08:44.650Z,99671.53
2022-12-15T07:11:16.049Z,99674.86
2022-12-15T07:13:50.064Z,99682.10
2022-12-15T07:16:21.701Z,99687.69
2022-12-15T07:18:52.722Z,99694.47
2022-12-15T07:21:23.443Z,99693.89
2022-12-15T07:23:56.434Z,99696.95
2022-12-15T07:26:28.535Z,99687.48
2022-12-15T07:28:59.203Z,99705.90
2022-12-15T07:31:31.863Z,99704.91
2022-12-15T07:34:02.721Z,99706.99
2022-12-15T07:36:33.545Z,99712.73
2022-12-15T07:39:05.713Z,99716.89
2022-12-15T07:41:36.512Z,99719.20
2022-12-15T07:44:07.784Z,99722.08
2022-12-15T07:46:38.655Z,99724.30
2022-12-15T07:49:10.341Z,99728.77
2022-12-15T07:51:42.071Z,99735.16
2022-12-15T07:54:13.677Z,99740.09
2022-12-15T07:56:45.052Z,99744.27
2022-12-15T07:59:21.334Z,99749.03
2022-12-15T08:01:52.474Z,99741.85
2022-12-15T08:04:23.634Z,99743.09
2022-12-15T08:06:56.095Z,99732.77
2022-12-15T08:09:26.990Z,99729.95
2022-12-15T08:11:57.744Z,99729.70
2022-12-15T08:14:29.439Z,99729.74
2022-12-15T08:17:00.167Z,99735.27
2022-12-15T08:19:32.048Z,99736.76
2022-12-15T08:22:02.715Z,99741.48
2022-12-15T08:24:33.312Z,99747.38
2022-12-15T08:27:04.140Z,99742.39
2022-12-15T08:29:51.857Z,99746.98
2022-12-15T08:32:24.541Z,99748.63
2022-12-15T08:34:55.690Z,99759.39
2022-12-15T08:37:27.168Z,99766.27
2022-12-15T08:39:58.055Z,99768.78
2022-12-15T08:42:28.759Z,99765.52
2022-12-15T08:44:59.416Z,99769.70
2022-12-15T08:47:30.741Z,99775.86
2022-12-15T08:50:01.663Z,99775.12
2022-12-15T08:52:32.445Z,99773.77
2022-12-15T08:55:03.183Z,99770.74
2022-12-15T08:57:33.774Z,99774.05
2022-12-15T09:00:05.795Z,99770.90
2022-12-15T09:02:36.442Z,99766.36
2022-12-15T09:05:08.406Z,99761.48
2022-12-15T09:07:39.171Z,99757.54
2022-12-15T09:10:11.020Z,99761.41
2022-12-15T09:12:41.791Z,99763.49
2022-12-15T09:15:13.397Z,99765.52
2022-12-15T09:17:44.156Z,99767.16
2022-12-15T09:20:17.840Z,99774.18
2022-12-15T09:22:50.475Z,99775.07
2022-12-15T09:25:21.275Z,99774.73
2022-12-15T09:27:51.931Z,99778.06
2022-12-15T09:30:22.874Z,99781.73
2022-12-15T09:32:53.429Z,99779.81
2022-12-15T09:35:24.228Z,99783.52
2022-12-15T09:37:54.901Z,99775.27
2022-12-15T09:40:26.059Z,99776.42
2022-12-15T09:43:25.546Z,99778.14
2022-12-15T09:45:54.056Z,99779.77
2022-12-15T09:48:31.267Z,99778.33
2022-12-15T09:51:04.505Z,99774.27
2022-12-15T09:56:33.831Z,99780.27
2022-12-15T09:59:15.818Z,99791.32
2022-12-15T10:01:55.192Z,99791.42
2022-12-15T10:04:29.229Z,99792.02
2022-12-15T10:07:06.966Z,99793.60
2022-12-15T10:09:39.814Z,99791.84
2022-12-15T10:12:16.184Z,99787.41
2022-12-15T10:14:52.381Z,99786.47
2022-12-15T10:17:26.777Z,99788.52
2022-12-15T10:20:07.617Z,99792.02
2022-12-15T10:22:39.094Z,99801.11
2022-12-15T10:25:23.513Z,99797.30
2022-12-15T10:28:17.569Z,99801.79
2022-12-15T10:30:59.568Z,99804.27
2022-12-15T10:33:36.545Z,99797.02
2022-12-15T10:36:13.423Z,99797.04
2022-12-15T10:38:50.602Z,99803.45
2022-12-15T10:41:23.957Z,99805.52
2022-12-15T10:43:56.271Z,99807.06
2022-12-15T10:46:29.004Z,99809.70
2022-12-15T10:49:01.304Z,99809.73
2022-12-15T10:51:34.273Z,99812.60
2022-12-15T10:54:14.449Z,99812.35
2022-12-15T10:56:52.512Z,99812.94
2022-12-15T10:59:31.767Z,99811.31
2022-12-15T11:02:23.888Z,99809.61
2022-12-15T11:04:59.136Z,99801.95
2022-12-15T11:07:38.867Z,99810.18
2022-12-15T11:10:23.642Z,99807.35
2022-12-15T11:13:10.975Z,99813.72
2022-12-15T11:15:50.737Z,99810.92
2022-12-15T11:18:33.795Z,99804.22
2022-12-15T11:21:12.103Z,99807.59
2022-12-15T11:23:55.212Z,99808.13
2022-12-15T11:26:50.052Z,99803.26
2022-12-15T11:29:42.888Z,99802.17
2022-12-15T11:32:15.411Z,99802.58
2022-12-15T11:34:48.800Z,99799.13
2022-12-15T11:37:41.461Z,99794.67
2022-12-15T11:40:31.866Z,99798.08
2022-12-15T11:43:23.486Z,99797.36
2022-12-15T11:46:09.206Z,99794.69
2022-12-15T11:48:49.832Z,99793.75
2022-12-15T11:51:31.912Z,99788.90
2022-12-15T11:54:16.785Z,99803.30
2022-12-15T11:56:52.393Z,99803.63
2022-12-15T11:59:53.485Z,99798.26
2022-12-15T12:02:58.634Z,99794.36
2022-12-15T12:05:39.300Z,99794.70
2022-12-15T12:08:25.208Z,99795.82
2022-12-15T12:11:03.561Z,99794.06
2022-12-15T12:13:41.836Z,99793.33
2022-12-15T12:16:25.362Z,99789.03
2022-12-15T12:19:03.346Z,99785.20
2022-12-15T12:21:39.402Z,99783.71
2022-12-15T12:24:17.526Z,99779.27
2022-12-15T12:26:53.368Z,99773.98
2022-12-15T12:29:32.382Z,99769.70
2022-12-15T12:32:08.744Z,99773.58
2022-12-15T12:34:51.171Z,99774.32
2022-12-15T12:37:28.912Z,99776.55
2022-12-15T12:40:04.577Z,99777.00
2022-12-15T12:42:41.188Z,99774.30
2022-12-15T12:45:15.828Z,99776.16
2022-12-15T12:47:50.861Z,99772.08
2022-12-15T12:50:25.060Z,99774.39
2022-12-15T12:52:58.599Z,99781.89
2022-12-15T12:55:41.574Z,99784.34
2022-12-15T12:58:38.431Z,99784.73
2022-12-15T13:01:21.444Z,99782.46
2022-12-15T13:04:08.460Z,99785.73
2022-12-15T13:07:06.840Z,99788.02
2022-12-15T13:09:43.443Z,99791.19
2022-12-15T13:12:50.981Z,99785.52
2022-12-15T13:15:37.384Z,99779.44
2022-12-15T13:18:14.703Z,99779.77
2022-12-15T13:20:48.927Z,99776.98
2022-12-15T13:23:37.704Z,99776.11
2022-12-15T13:26:20.900Z,99771.63
2022-12-15T13:28:57.459Z,99765.27
2022-12-15T13:31:42.251Z,99778.98
2022-12-15T13:34:19.111Z,99778.09
2022-12-15T13:36:55.519Z,99773.33
2022-12-15T13:39:57.249Z,99775.92
2022-12-15T13:42:52.988Z,99773.47
2022-12-15T13:45:53.821Z,99782.04
2022-12-15T13:48:31.759Z,99789.48
2022-12-15T13:51:11.328Z,99792.30
2022-12-15T13:53:57.482Z,99787.58
2022-12-15T13:57:02.556Z,99791.26
2022-12-15T13:59:46.439Z,99794.52
2022-12-15T14:02:28.973Z,99793.80
2022-12-15T14:05:20.155Z,99794.80
2022-12-15T14:07:57.757Z,99794.17
2022-12-15T14:10:41.626Z,99798.17
2022-12-15T14:13:21.519Z,99807.17
2022-12-15T14:15:55.850Z,99815.25
2022-12-15T14:18:32.694Z,99819.16
2022-12-15T14:21:06.251Z,99816.73
2022-12-15T14:23:52.461Z,99812.13
2022-12-15T14:26:39.144Z,99803.70
2022-12-15T14:29:12.946Z,99800.72
2022-12-15T14:31:59.445Z,99797.94
2022-12-15T14:34:34.088Z,99800.88
2022-12-15T14:37:12.535Z,99797.15
2022-12-15T14:39:52.639Z,99793.30
2022-12-15T14:42:33.484Z,99797.96
2022-12-15T14:45:05.823Z,99802.14
2022-12-15T14:47:38.802Z,99809.84
2022-12-15T14:50:12.767Z,99812.92
2022-12-15T14:52:45.206Z,99809.63
2022-12-15T14:55:31.728Z,99812.17
2022-12-15T14:58:02.778Z,99814.35
2022-12-15T15:00:36.746Z,99813.98
2022-12-15T15:06:02.392Z,99801.16
2022-12-15T15:08:36.636Z,99802.13
2022-12-15T15:11:26.926Z,99804.63
2022-12-15T15:14:04.218Z,99798.72
2022-12-15T15:16:35.090Z,99800.67
2022-12-15T15:19:07.034Z,99798.06
2022-12-15T15:21:39.542Z,99799.57
2022-12-15T15:24:25.805Z,99798.95
2022-12-15T15:27:16.456Z,99802.61
2022-12-15T15:29:46.906Z,99804.88
2022-12-15T15:32:20.249Z,99807.42
2022-12-15T15:34:52.229Z,99806.91
2022-12-15T15:37:25.534Z,99808.16
2022-12-15T15:39:57.246Z,99811.38
2022-12-15T15:42:32.554Z,99807.38
2022-12-15T15:45:03.567Z,99807.42
2022-12-15T15:47:34.338Z,99805.70
2022-12-15T15:50:05.176Z,99802.95
2022-12-15T15:52:35.902Z,99800.31
2022-12-15T15:55:08.389Z,99796.48
2022-12-15T15:57:38.933Z,99795.52
2022-12-15T16:00:17.999Z,99803.05
2022-12-15T16:02:48.974Z,99805.64
2022-12-15T16:05:21.133Z,99807.94
2022-12-15T16:07:51.774Z,99814.95
2022-12-15T16:10:22.906Z,99821.09
2022-12-15T16:12:55.959Z,99827.83
2022-12-15T16:15:31.887Z,99824.95
2022-12-15T16:18:02.451Z,99826.73
2022-12-15T16:20:34.082Z,99833.33
2022-12-15T16:23:08.062Z,99835.25
2022-12-15T16:25:50.349Z,99836.29
2022-12-15T16:28:23.687Z,99843.98
2022-12-15T16:30:55.248Z,99838.92
2022-12-15T16:33:25.888Z,99840.51
2022-12-15T16:35:56.660Z,99841.31
2022-12-15T16:38:29.605Z,99841.27
2022-12-15T16:40:59.813Z,99839.31
2022-12-15T16:43:36.648Z,99842.48
2022-12-15T16:46:12.338Z,99840.27
2022-12-15T16:48:43.710Z,99847.72
2022-12-15T16:51:27.479Z,99855.64
2022-12-15T16:53:59.392Z,99863.88
2022-12-15T16:56:29.940Z,99869.97
2022-12-15T16:59:31.496Z,99872.73
2022-12-15T17:01:52.031Z,99876.27
2022-12-15T17:04:22.770Z,99877.77
2022-12-15T17:06:54.108Z,99869.55
2022-12-15T17:09:26.612Z,99865.21
2022-12-15T17:11:58.207Z,99862.95
2022-12-15T17:14:28.788Z,99863.91
2022-12-15T17:16:59.290Z,99862.57
2022-12-15T17:19:29.881Z,99864.32
2022-12-15T17:22:00.386Z,99868.23
2022-12-15T17:24:31.026Z,99879.24
2022-12-15T17:27:02.312Z,99876.11
2022-12-15T17:29:34.139Z,99878.98
2022-12-15T17:32:22.238Z,99876.89
2022-12-15T17:34:52.996Z,99872.13
2022-12-15T17:37:26.135Z,99871.70
2022-12-15T17:40:00.067Z,99867.77
2022-12-15T17:42:30.830Z,99870.02
2022-12-15T17:45:01.303Z,99864.02
2022-12-15T17:47:33.634Z,99859.27
2022-12-15T17:50:04.260Z,99857.05
2022-12-15T17:52:35.453Z,99854.15
2022-12-15T17:55:16.070Z,99857.55
2022-12-15T17:57:46.616Z,99866.59
2022-12-15T18:00:23.888Z,99866.89
2022-12-15T18:02:55.383Z,99870.39
2022-12-15T18:05:27.824Z,99868.41
2022-12-15T18:08:02.664Z,99860.81
2022-12-15T18:10:37.985Z,99855.95
2022-12-15T18:13:18.537Z,99850.63
2022-12-15T18:15:50.413Z,99843.67
2022-12-15T18:18:22.751Z,99843.41
2022-12-15T18:20:56.118Z,99837.88
2022-12-15T18:23:26.871Z,99838.15
2022-12-15T18:26:02.946Z,99838.22
2022-12-15T18:28:35.673Z,99848.04
2022-12-15T18:31:14.874Z,99852.30
2022-12-15T18:33:46.254Z,99851.95
2022-12-15T18:36:17.935Z,99855.08
2022-12-15T18:38:48.640Z,99857.16
2022-12-15T18:41:21.067Z,99860.00
2022-12-15T18:43:58.711Z,99868.64
2022-12-15T18:46:29.930Z,99871.91
2022-12-15T18:49:00.871Z,99873.70
2022-12-15T18:51:32.326Z,99872.76
2022-12-15T18:54:02.934Z,99868.40
2022-12-15T18:56:34.014Z,99864.52
2022-12-15T18:59:04.643Z,99864.23
2022-12-15T19:01:38.153Z,99858.80
2022-12-15T19:04:09.777Z,99858.73
2022-12-15T19:06:41.081Z,99862.02
2022-12-15T19:09:18.357Z,99853.66
2022-12-15T19:12:13.427Z,99843.66
2022-12-15T19:14:47.391Z,99847.48
2022-12-15T19:17:38.569Z,99849.50
2022-12-15T19:20:37.053Z,99849.55
2022-12-15T19:23:08.269Z,99851.09
2022-12-15T19:25:39.831Z,99845.65
2022-12-15T19:28:16.870Z,99845.50
2022-12-15T19:30:48.118Z,99845.07
2022-12-15T19:33:20.170Z,99844.36
2022-12-15T19:35:55.068Z,99855.02
2022-12-15T19:38:28.975Z,99853.48
2022-12-15T19:41:00.492Z,99851.83
2022-12-15T19:43:31.744Z,99853.71
2022-12-15T19:46:02.899Z,99857.48
2022-12-15T19:48:36.765Z,99855.00
2022-12-15T19:51:12.575Z,99852.13
2022-12-15T19:53:44.337Z,99851.55
2022-12-15T19:56:18.670Z,99846.84
2022-12-15T19:58:49.889Z,99852.92
2022-12-15T20:01:21.834Z,99849.34
2022-12-15T20:03:53.662Z,99842.02
2022-12-15T20:06:27.419Z,99844.54
2022-12-15T20:09:00.438Z,99843.12
2022-12-15T20:11:32.948Z,99843.18
2022-12-15T20:14:04.914Z,99844.80
2022-12-15T20:16:35.561Z,99842.10
2022-12-15T20:19:06.662Z,99841.77
2022-12-15T20:21:39.887Z,99838.26
2022-12-15T20:24:15.223Z,99838.61
2022-12-15T20:26:46.813Z,99832.85
2022-12-15T20:29:24.579Z,99832.01
2022-12-15T20:31:55.990Z,99828.36
2022-12-15T20:34:27.315Z,99826.42
2022-12-15T20:36:58.175Z,99821.02
2022-12-15T20:39:30.904Z,99814.77
2022-12-15T20:42:01.454Z,99810.68
2022-12-15T20:44:32.127Z,99803.65
2022-12-15T20:47:02.700Z,99796.17
2022-12-15T20:49:33.603Z,99795.61
2022-12-15T20:52:04.260Z,99790.49
2022-12-15T20:54:34.880Z,99790.35
2022-12-15T20:57:05.547Z,99786.44
2022-12-15T20:59:36.054Z,99780.44
2022-12-15T21:02:19.322Z,99776.40
2022-12-15T21:04:51.061Z,99775.36
2022-12-15T21:07:21.626Z,99768.23
2022-12-15T21:09:52.406Z,99767.73
2022-12-15T21:12:26.431Z,99764.73
2022-12-15T21:14:57.386Z,99761.71
2022-12-15T21:17:28.533Z,99767.94
2022-12-15T21:19:59.146Z,99771.84
2022-12-15T21:22:30.942Z,99770.14
2022-12-15T21:25:01.566Z,99769.31
2022-12-15T21:27:32.193Z,99761.30
2022-12-15T21:30:02.704Z,99752.82
2022-12-15T21:32:33.357Z,99751.94
2022-12-15T21:35:03.831Z,99758.19
2022-12-15T21:37:34.670Z,99760.11
2022-12-15T21:40:08.290Z,99752.52
2022-12-15T21:42:40.677Z,99749.15
2022-12-15T21:45:18.897Z,99750.59
2022-12-15T21:48:08.121Z,99747.76
2022-12-15T21:50:39.557Z,99744.13
2022-12-15T21:53:16.843Z,99749.31
2022-12-15T21:55:48.812Z,99749.96
2022-12-15T21:58:24.772Z,99746.73
2022-12-15T22:00:55.908Z,99748.29
2022-12-15T22:03:26.543Z,99749.42
2022-12-15T22:05:56.999Z,99753.54
2022-12-15T22:08:27.476Z,99759.65
2022-12-15T22:10:57.985Z,99755.48
2022-12-15T22:13:32.734Z,99761.06
2022-12-15T22:16:03.402Z,99760.92
2022-12-15T22:18:34.742Z,99759.05
2022-12-15T22:21:07.675Z,99766.60
2022-12-15T22:23:38.419Z,99766.94
2022-12-15T22:26:18.419Z,99770.29
2022-12-15T22:28:49.071Z,99768.61
2022-12-15T22:31:19.929Z,99767.66
2022-12-15T22:33:50.834Z,99770.38
2022-12-15T22:36:21.825Z,99764.04
2022-12-15T22:38:52.309Z,99764.73
2022-12-15T22:41:24.764Z,99766.96
2022-12-15T22:43:57.630Z,99767.36
2022-12-15T22:46:28.129Z,99770.97
2022-12-15T22:48:58.585Z,99774.77
2022-12-15T22:51:29.076Z,99780.34
2022-12-15T22:53:59.554Z,99778.73
2022-12-15T22:56:35.376Z,99773.02
2022-12-15T22:59:11.753Z,99772.77
2022-12-15T23:01:42.296Z,99773.21
2022-12-15T23:04:13.422Z,99776.95
2022-12-15T23:06:45.388Z,99777.91
2022-12-15T23:09:15.896Z,99780.90
2022-12-15T23:11:46.434Z,99786.77
2022-12-15T23:14:18.386Z,99786.09
2022-12-15T23:16:49.049Z,99793.98
2022-12-15T23:19:24.578Z,99796.54
2022-12-15T23:21:55.184Z,99792.08
2022-12-15T23:24:25.747Z,99790.24
2022-12-15T23:26:56.229Z,99783.04
2022-12-15T23:29:26.818Z,99778.73
2022-12-15T23:31:57.915Z,99768.59
2022-12-15T23:34:28.417Z,99759.92
2022-12-15T23:36:58.931Z,99750.02
2022-12-15T23:39:29.478Z,99741.86
2022-12-15T23:41:59.975Z,99737.63
2022-12-15T23:44:30.476Z,99739.40
2022-12-15T23:47:00.954Z,99738.35
2022-12-15T23:49:31.905Z,99739.43
2022-12-15T23:52:02.406Z,99742.81
2022-12-15T23:54:32.918Z,99746.52
2022-12-15T23:57:03.585Z,99747.86
2022-12-15T23:59:34.199Z,99744.23
